createdAt,value
2023-01-27T00:00:12.748Z,33.38
2023-01-27T00:01:45.653Z,28.77
2023-01-27T00:03:19.094Z,28.77
2023-01-27T00:04:51.816Z,27.67
2023-01-27T00:06:24.547Z,26.75
2023-01-27T00:07:58.440Z,27.63
2023-01-27T00:09:31.199Z,27.90
2023-01-27T00:11:21.565Z,28.63
2023-01-27T00:13:13.343Z,33.30
2023-01-27T00:14:46.067Z,26.52
2023-01-27T00:16:18.858Z,23.80
2023-01-27T00:17:50.661Z,27.00
2023-01-27T00:19:23.501Z,26.73
2023-01-27T00:21:13.722Z,26.63
2023-01-27T00:23:15.669Z,29.83
2023-01-27T00:24:48.378Z,25.63
2023-01-27T00:26:21.350Z,28.65
2023-01-27T00:27:54.402Z,25.48
2023-01-27T00:29:27.153Z,29.42
2023-01-27T00:30:59.728Z,27.20
2023-01-27T00:32:50.804Z,26.77
2023-01-27T00:34:23.657Z,25.60
2023-01-27T00:36:00.032Z,32.17
2023-01-27T00:37:32.752Z,27.83
2023-01-27T00:39:06.211Z,30.60
2023-01-27T00:40:39.084Z,29.40
2023-01-27T00:42:11.848Z,29.92
2023-01-27T00:43:46.330Z,30.52
2023-01-27T00:45:36.902Z,29.63
2023-01-27T00:47:09.683Z,30.10
2023-01-27T00:48:42.404Z,26.20
2023-01-27T00:50:16.651Z,30.83
2023-01-27T00:51:49.671Z,33.08
2023-01-27T00:53:21.425Z,26.98
2023-01-27T00:54:54.131Z,31.55
2023-01-27T00:56:28.081Z,30.80
2023-01-27T00:58:00.793Z,30.00
2023-01-27T00:59:34.842Z,28.40
2023-01-27T01:01:11.652Z,29.42
2023-01-27T01:02:44.355Z,31.95
2023-01-27T01:04:17.056Z,28.83
2023-01-27T01:05:48.868Z,32.53
2023-01-27T01:07:21.601Z,33.70
2023-01-27T01:08:54.638Z,37.08
2023-01-27T01:10:27.432Z,33.97
2023-01-27T01:12:00.117Z,36.97
2023-01-27T01:13:33.341Z,33.17
2023-01-27T01:15:08.518Z,34.38
2023-01-27T01:16:41.215Z,32.53
2023-01-27T01:18:14.158Z,34.42
2023-01-27T01:19:46.904Z,34.28
2023-01-27T01:21:19.611Z,36.20
2023-01-27T01:22:51.330Z,33.08
2023-01-27T01:24:24.202Z,37.15
2023-01-27T01:25:58.218Z,38.80
2023-01-27T01:27:30.944Z,37.78
2023-01-27T01:29:03.642Z,39.13
2023-01-27T01:30:37.445Z,42.70
2023-01-27T01:32:10.735Z,36.13
2023-01-27T01:33:43.533Z,40.58
2023-01-27T01:35:16.394Z,37.45
2023-01-27T01:36:49.097Z,40.85
2023-01-27T01:38:20.829Z,37.65
2023-01-27T01:39:53.515Z,39.92
2023-01-27T01:41:25.820Z,36.78
2023-01-27T01:43:00.612Z,36.55
2023-01-27T01:44:34.100Z,37.03
2023-01-27T01:46:09.940Z,38.60
2023-01-27T01:47:42.652Z,32.35
2023-01-27T01:49:16.971Z,26.95
2023-01-27T01:50:53.403Z,30.20
2023-01-27T01:52:26.264Z,29.33
2023-01-27T01:54:02.793Z,34.05
2023-01-27T01:55:36.838Z,28.10
2023-01-27T01:57:13.409Z,30.85
2023-01-27T01:58:47.182Z,27.20
2023-01-27T02:00:20.227Z,24.02
2023-01-27T02:01:57.235Z,25.58
2023-01-27T02:03:30.394Z,23.02
2023-01-27T02:05:06.069Z,20.45
2023-01-27T02:06:43.373Z,19.52
2023-01-27T02:08:18.781Z,20.05
2023-01-27T02:09:51.480Z,19.15
2023-01-27T02:11:24.732Z,20.75
2023-01-27T02:12:56.524Z,23.42
2023-01-27T02:14:29.311Z,22.45
2023-01-27T02:16:02.682Z,20.92
2023-01-27T02:17:36.889Z,20.55
2023-01-27T02:19:19.117Z,21.63
2023-01-27T02:20:54.112Z,22.30
2023-01-27T02:22:33.876Z,22.45
2023-01-27T02:24:12.137Z,21.10
2023-01-27T02:25:55.965Z,22.67
2023-01-27T02:27:28.741Z,23.17
2023-01-27T02:29:05.061Z,23.48
2023-01-27T02:30:36.992Z,21.13
2023-01-27T02:32:09.734Z,22.17
2023-01-27T02:33:42.478Z,25.27
2023-01-27T02:35:20.922Z,21.80
2023-01-27T02:36:56.857Z,26.70
2023-01-27T02:38:33.732Z,21.33
2023-01-27T02:40:09.013Z,18.13
2023-01-27T02:41:45.651Z,23.17
2023-01-27T02:43:17.382Z,23.77
2023-01-27T02:44:50.116Z,22.95
2023-01-27T02:46:22.916Z,22.13
2023-01-27T02:47:55.746Z,25.08
2023-01-27T02:49:28.540Z,24.38
2023-01-27T02:51:01.324Z,23.45
2023-01-27T02:52:34.016Z,23.35
2023-01-27T02:54:07.020Z,27.30
2023-01-27T02:55:39.718Z,24.63
2023-01-27T02:57:13.762Z,26.65
2023-01-27T02:58:46.499Z,28.38
2023-01-27T03:00:18.665Z,23.38
2023-01-27T03:01:51.380Z,26.35
2023-01-27T03:03:24.179Z,25.45
2023-01-27T03:04:56.942Z,27.63
2023-01-27T03:06:29.763Z,24.45
2023-01-27T03:08:02.546Z,27.30
2023-01-27T03:09:35.240Z,30.67
2023-01-27T03:11:08.881Z,28.63
2023-01-27T03:12:41.981Z,30.00
2023-01-27T03:14:14.685Z,28.77
2023-01-27T03:16:05.184Z,27.88
2023-01-27T03:17:56.545Z,27.60
2023-01-27T03:19:29.261Z,25.02
2023-01-27T03:21:03.104Z,28.63
2023-01-27T03:22:35.841Z,26.85
2023-01-27T03:24:08.650Z,29.42
2023-01-27T03:25:46.210Z,29.17
2023-01-27T03:27:18.294Z,26.92
2023-01-27T03:29:12.527Z,30.98
2023-01-27T03:30:45.454Z,31.40
2023-01-27T03:32:17.214Z,26.33
2023-01-27T03:33:50.376Z,28.25
2023-01-27T03:35:23.908Z,27.63
2023-01-27T03:37:14.433Z,26.52
2023-01-27T03:39:04.844Z,29.75
2023-01-27T03:40:55.143Z,26.10
2023-01-27T03:42:45.576Z,29.23
2023-01-27T03:44:37.281Z,24.67
2023-01-27T03:46:19.607Z,26.52
2023-01-27T03:47:52.739Z,30.52
2023-01-27T03:49:25.461Z,28.10
2023-01-27T03:50:57.694Z,26.95
2023-01-27T03:52:30.373Z,27.17
2023-01-27T03:54:03.214Z,27.73
2023-01-27T03:55:37.036Z,25.42
2023-01-27T03:57:09.708Z,30.38
2023-01-27T03:58:42.852Z,33.33
2023-01-27T04:00:16.635Z,29.88
2023-01-27T04:01:49.672Z,31.05
2023-01-27T04:03:42.239Z,29.55
2023-01-27T04:05:32.766Z,34.35
2023-01-27T04:07:05.456Z,28.63
2023-01-27T04:08:37.196Z,29.95
2023-01-27T04:10:11.263Z,28.60
2023-01-27T04:11:54.911Z,34.03
2023-01-27T04:13:27.595Z,28.58
2023-01-27T04:15:00.326Z,27.20
2023-01-27T04:16:34.403Z,25.27
2023-01-27T04:18:07.103Z,29.42
2023-01-27T04:19:40.120Z,25.83
2023-01-27T04:21:13.131Z,28.58
2023-01-27T04:22:45.865Z,23.33
2023-01-27T04:24:22.560Z,26.95
2023-01-27T04:25:56.569Z,23.48
2023-01-27T04:27:29.284Z,23.98
2023-01-27T04:29:01.899Z,26.48
2023-01-27T04:30:34.595Z,23.90
2023-01-27T04:32:10.440Z,23.90
2023-01-27T04:33:42.596Z,22.65
2023-01-27T04:35:15.522Z,21.58
2023-01-27T04:36:48.583Z,22.20
2023-01-27T04:38:21.291Z,21.25
2023-01-27T04:39:53.983Z,21.63
2023-01-27T04:41:25.762Z,20.75
2023-01-27T04:42:58.499Z,21.48
2023-01-27T04:44:31.184Z,20.00
2023-01-27T04:46:04.113Z,19.80
2023-01-27T04:47:38.226Z,19.77
2023-01-27T04:49:11.134Z,17.27
2023-01-27T04:50:42.983Z,20.42
2023-01-27T04:52:15.645Z,19.42
2023-01-27T04:53:47.442Z,20.77
2023-01-27T04:55:20.182Z,19.25
2023-01-27T04:56:58.019Z,20.55
2023-01-27T04:58:30.719Z,19.65
2023-01-27T05:00:03.564Z,19.63
2023-01-27T05:01:36.408Z,22.55
2023-01-27T05:03:10.190Z,20.48
2023-01-27T05:04:42.903Z,21.02
2023-01-27T05:06:16.346Z,21.48
2023-01-27T05:07:49.038Z,20.55
2023-01-27T05:09:21.733Z,20.65
2023-01-27T05:10:53.501Z,22.95
2023-01-27T05:12:26.477Z,20.88
2023-01-27T05:13:59.182Z,20.75
2023-01-27T05:15:31.150Z,19.60
2023-01-27T05:17:03.924Z,19.17
2023-01-27T05:18:37.507Z,23.35
2023-01-27T05:20:11.357Z,23.95
2023-01-27T05:21:44.365Z,21.73
2023-01-27T05:23:34.550Z,20.15
2023-01-27T05:25:08.054Z,20.67
2023-01-27T05:26:40.766Z,20.42
2023-01-27T05:28:12.589Z,20.80
2023-01-27T05:29:45.502Z,21.38
2023-01-27T05:31:20.671Z,22.70
2023-01-27T05:32:53.362Z,20.40
2023-01-27T05:34:27.453Z,19.42
2023-01-27T05:36:00.897Z,19.60
2023-01-27T05:37:33.600Z,23.48
2023-01-27T05:39:08.599Z,21.85
2023-01-27T05:40:40.717Z,19.40
2023-01-27T05:42:13.437Z,20.80
2023-01-27T05:43:47.960Z,21.70
2023-01-27T05:45:19.906Z,20.88
2023-01-27T05:46:52.609Z,20.50
2023-01-27T05:48:24.373Z,19.83
2023-01-27T05:49:58.376Z,20.55
2023-01-27T05:51:33.417Z,20.95
2023-01-27T05:53:05.151Z,19.88
2023-01-27T05:54:37.811Z,19.63
2023-01-27T05:56:12.436Z,20.42
2023-01-27T05:57:45.133Z,18.42
2023-01-27T05:59:18.003Z,16.85
2023-01-27T06:00:51.629Z,19.05
2023-01-27T06:02:24.349Z,17.75
2023-01-27T06:03:57.331Z,18.65
2023-01-27T06:05:31.349Z,21.48
2023-01-27T06:07:04.029Z,16.85
2023-01-27T06:08:37.634Z,20.30
2023-01-27T06:10:11.851Z,19.17
2023-01-27T06:11:44.547Z,23.92
2023-01-27T06:13:17.298Z,21.90
2023-01-27T06:14:49.975Z,23.50
2023-01-27T06:16:23.882Z,16.88
2023-01-27T06:17:55.661Z,18.10
2023-01-27T06:19:28.350Z,23.60
2023-01-27T06:21:03.693Z,22.75
2023-01-27T06:22:36.439Z,19.67
2023-01-27T06:24:10.312Z,23.52
2023-01-27T06:25:45.874Z,22.23
2023-01-27T06:27:18.585Z,21.13
2023-01-27T06:28:51.269Z,20.27
2023-01-27T06:30:23.221Z,21.85
2023-01-27T06:31:55.951Z,20.35
2023-01-27T06:33:28.681Z,20.70
2023-01-27T06:35:01.433Z,19.60
2023-01-27T06:36:36.850Z,23.08
2023-01-27T06:38:12.793Z,22.27
2023-01-27T06:39:45.488Z,21.30
2023-01-27T06:41:18.545Z,21.50
2023-01-27T06:42:51.248Z,20.08
2023-01-27T06:44:23.945Z,19.77
2023-01-27T06:45:57.886Z,17.23
2023-01-27T06:47:30.668Z,17.63
2023-01-27T06:49:03.547Z,17.92
2023-01-27T06:50:37.486Z,17.80
2023-01-27T06:52:11.506Z,19.83
2023-01-27T06:53:44.291Z,17.65
2023-01-27T06:55:17.144Z,18.98
2023-01-27T06:56:49.817Z,21.90
2023-01-27T06:58:22.529Z,21.33
2023-01-27T06:59:55.316Z,19.65
2023-01-27T07:01:28.252Z,19.45
2023-01-27T07:03:00.974Z,19.60
2023-01-27T07:04:33.685Z,17.75
2023-01-27T07:06:06.929Z,19.48
2023-01-27T07:07:41.097Z,17.63
2023-01-27T07:09:13.803Z,17.75
2023-01-27T07:10:46.512Z,19.42
2023-01-27T07:12:19.239Z,19.27
2023-01-27T07:13:51.956Z,17.40
2023-01-27T07:15:24.632Z,18.38
2023-01-27T07:16:57.341Z,20.60
2023-01-27T07:18:30.086Z,23.10
2023-01-27T07:20:03.185Z,22.77
2023-01-27T07:21:35.865Z,22.20
2023-01-27T07:23:10.836Z,25.67
2023-01-27T07:24:43.543Z,27.48
2023-01-27T07:26:24.958Z,26.33
2023-01-27T07:27:58.307Z,24.95
2023-01-27T07:29:31.081Z,31.75
2023-01-27T07:31:04.384Z,24.38
2023-01-27T07:32:37.167Z,23.35
2023-01-27T07:34:09.861Z,24.08
2023-01-27T07:35:42.861Z,21.05
2023-01-27T07:37:15.650Z,28.25
2023-01-27T07:38:51.876Z,23.85
2023-01-27T07:40:24.609Z,25.52
2023-01-27T07:41:58.730Z,22.52
2023-01-27T07:43:31.438Z,24.10
2023-01-27T07:45:04.913Z,26.45
2023-01-27T07:46:37.610Z,20.17
2023-01-27T07:48:12.433Z,22.52
2023-01-27T07:49:45.276Z,24.05
2023-01-27T07:51:17.999Z,25.38
2023-01-27T07:52:50.709Z,24.15
2023-01-27T07:54:26.053Z,26.20
2023-01-27T07:56:00.581Z,22.48
2023-01-27T07:57:33.320Z,24.80
2023-01-27T07:59:06.053Z,25.35
2023-01-27T08:00:38.807Z,23.38
2023-01-27T08:02:12.199Z,21.15
2023-01-27T08:03:44.888Z,21.35
2023-01-27T08:05:16.829Z,20.48
2023-01-27T08:06:49.543Z,22.88
2023-01-27T08:08:22.258Z,21.58
2023-01-27T08:09:57.243Z,22.08
2023-01-27T08:11:29.976Z,18.92
2023-01-27T08:13:02.703Z,18.80
2023-01-27T08:14:35.413Z,21.85
2023-01-27T08:16:11.592Z,22.08
2023-01-27T08:17:44.307Z,22.75
2023-01-27T08:19:16.986Z,19.08
2023-01-27T08:20:49.689Z,20.13
2023-01-27T08:22:22.409Z,18.75
2023-01-27T08:23:55.758Z,19.42
2023-01-27T08:25:29.904Z,19.83
2023-01-27T08:27:02.665Z,19.80
2023-01-27T08:28:38.386Z,20.45
2023-01-27T08:30:12.761Z,19.10
2023-01-27T08:31:45.778Z,20.05
2023-01-27T08:33:19.068Z,19.40
2023-01-27T08:34:51.758Z,18.63
2023-01-27T08:36:25.178Z,21.38
2023-01-27T08:37:57.873Z,19.77
2023-01-27T08:39:30.712Z,20.27
2023-01-27T08:41:06.493Z,17.75
2023-01-27T08:42:39.198Z,19.42
2023-01-27T08:44:11.928Z,16.58
2023-01-27T08:45:46.631Z,21.13
2023-01-27T08:47:19.415Z,20.17
2023-01-27T08:48:52.190Z,17.92
2023-01-27T08:50:25.133Z,18.67
2023-01-27T08:51:57.880Z,18.48
2023-01-27T08:53:31.389Z,19.63
2023-01-27T08:55:04.195Z,19.15
2023-01-27T08:56:38.476Z,17.05
2023-01-27T08:58:11.176Z,20.00
2023-01-27T08:59:46.014Z,17.52
2023-01-27T09:01:19.396Z,16.45
2023-01-27T09:02:52.114Z,18.63
2023-01-27T09:04:24.874Z,17.63
2023-01-27T09:05:57.616Z,17.98
2023-01-27T09:07:30.381Z,19.30
2023-01-27T09:09:12.517Z,17.70
2023-01-27T09:10:45.277Z,17.58
2023-01-27T09:12:19.306Z,17.40
2023-01-27T09:13:51.982Z,19.95
2023-01-27T09:15:25.054Z,16.42
2023-01-27T09:16:57.748Z,17.23
2023-01-27T09:18:30.440Z,15.52
2023-01-27T09:20:03.201Z,18.60
2023-01-27T09:21:35.896Z,15.60
2023-01-27T09:23:08.598Z,16.55
2023-01-27T09:24:41.292Z,15.40
2023-01-27T09:26:13.981Z,16.20
2023-01-27T09:27:48.061Z,18.48
2023-01-27T09:29:20.859Z,16.05
2023-01-27T09:30:58.207Z,16.90
2023-01-27T09:32:30.931Z,18.10
2023-01-27T09:34:04.449Z,15.55
2023-01-27T09:35:41.809Z,18.58
2023-01-27T09:37:14.913Z,19.15
2023-01-27T09:38:53.305Z,17.92
2023-01-27T09:40:34.909Z,15.23
2023-01-27T09:42:29.058Z,17.65
2023-01-27T09:44:22.492Z,15.32
2023-01-27T09:46:13.064Z,17.20
2023-01-27T09:48:01.666Z,15.48
2023-01-27T09:50:04.853Z,13.73
2023-01-27T09:51:50.512Z,14.35
2023-01-27T09:54:03.231Z,14.45
2023-01-27T09:55:44.897Z,12.38
2023-01-27T09:57:27.170Z,13.70
2023-01-27T09:59:23.569Z,12.60
2023-01-27T10:01:05.712Z,13.02
2023-01-27T10:03:00.954Z,12.90
2023-01-27T10:05:10.492Z,15.45
2023-01-27T10:06:52.763Z,11.75
2023-01-27T10:08:49.210Z,13.52
2023-01-27T10:10:38.103Z,13.75
2023-01-27T10:12:23.569Z,12.30
2023-01-27T10:14:11.294Z,12.43
2023-01-27T10:16:03.211Z,13.63
2023-01-27T10:17:47.808Z,13.23
2023-01-27T10:19:40.519Z,15.18
2023-01-27T10:21:20.633Z,12.43
2023-01-27T10:23:04.118Z,13.15
2023-01-27T10:24:56.765Z,12.05
2023-01-27T10:26:36.384Z,13.18
2023-01-27T10:28:14.361Z,14.15
2023-01-27T10:29:51.862Z,14.05
2023-01-27T10:31:27.996Z,13.30
2023-01-27T10:33:11.347Z,15.20
2023-01-27T10:34:51.111Z,13.68
2023-01-27T10:36:29.288Z,14.88
2023-01-27T10:38:11.798Z,14.13
2023-01-27T10:39:51.812Z,14.98
2023-01-27T10:41:31.960Z,14.57
2023-01-27T10:43:10.818Z,12.98
2023-01-27T10:44:58.753Z,13.68
2023-01-27T10:46:41.763Z,13.15
2023-01-27T10:48:27.145Z,15.35
2023-01-27T10:50:03.964Z,13.70
2023-01-27T10:51:42.429Z,14.73
2023-01-27T10:53:18.225Z,15.57
2023-01-27T10:54:56.510Z,15.23
2023-01-27T10:56:37.052Z,14.90
2023-01-27T10:58:16.047Z,15.10
2023-01-27T11:00:18.373Z,16.15
2023-01-27T11:01:54.139Z,16.85
2023-01-27T11:03:30.736Z,13.40
2023-01-27T11:05:09.315Z,13.60
2023-01-27T11:06:44.382Z,14.98
2023-01-27T11:08:20.548Z,13.00
2023-01-27T11:09:57.219Z,12.93
2023-01-27T11:11:44.189Z,14.13
2023-01-27T11:13:18.175Z,13.50
2023-01-27T11:14:52.836Z,11.77
2023-01-27T11:16:29.050Z,14.40
2023-01-27T11:18:11.900Z,13.77
2023-01-27T11:19:53.511Z,13.30
2023-01-27T11:21:31.038Z,13.02
2023-01-27T11:23:11.695Z,13.85
2023-01-27T11:24:48.257Z,12.00
2023-01-27T11:26:28.645Z,12.52
2023-01-27T11:28:11.799Z,11.43
2023-01-27T11:29:53.469Z,13.60
2023-01-27T11:31:37.847Z,12.07
2023-01-27T11:33:19.563Z,13.63
2023-01-27T11:35:02.871Z,16.73
2023-01-27T11:36:36.056Z,17.70
2023-01-27T11:38:16.006Z,12.45
2023-01-27T11:39:49.618Z,15.30
2023-01-27T11:41:22.784Z,15.27
2023-01-27T11:42:57.853Z,17.70
2023-01-27T11:44:34.203Z,14.30
2023-01-27T11:46:12.671Z,11.40
2023-01-27T11:47:47.550Z,17.02
2023-01-27T11:49:26.010Z,17.00
2023-01-27T11:50:58.693Z,22.63
2023-01-27T11:52:32.536Z,20.33
2023-01-27T11:54:13.315Z,15.63
2023-01-27T11:55:50.659Z,18.50
2023-01-27T11:57:25.565Z,15.35
2023-01-27T11:59:04.001Z,10.23
2023-01-27T12:00:43.444Z,16.48
2023-01-27T12:02:26.412Z,15.27
2023-01-27T12:04:06.771Z,15.48
2023-01-27T12:05:45.761Z,12.15
2023-01-27T12:07:23.272Z,14.02
2023-01-27T12:08:56.041Z,9.93
2023-01-27T12:10:32.798Z,11.45
2023-01-27T12:12:21.316Z,10.90
2023-01-27T12:13:57.369Z,9.82
2023-01-27T12:15:32.691Z,11.45
2023-01-27T12:17:07.963Z,9.80
2023-01-27T12:18:50.439Z,10.63
2023-01-27T12:20:35.563Z,20.33
2023-01-27T12:22:15.982Z,16.08
2023-01-27T12:23:52.687Z,12.55
2023-01-27T12:25:28.110Z,11.18
2023-01-27T12:27:01.421Z,7.22
2023-01-27T12:28:37.374Z,5.53
2023-01-27T12:30:20.885Z,4.78
2023-01-27T12:31:56.559Z,9.30
2023-01-27T12:33:32.817Z,8.45
2023-01-27T12:35:06.865Z,6.88
2023-01-27T12:36:43.156Z,8.48
2023-01-27T12:38:21.568Z,4.78
2023-01-27T12:40:00.319Z,7.97
2023-01-27T12:41:35.290Z,8.82
2023-01-27T12:43:13.599Z,6.28
2023-01-27T12:44:47.621Z,6.32
2023-01-27T12:46:23.993Z,8.65
2023-01-27T12:48:02.505Z,6.30
2023-01-27T12:49:37.823Z,4.97
2023-01-27T12:51:17.190Z,4.30
2023-01-27T12:53:05.768Z,5.68
2023-01-27T12:54:39.819Z,3.90
2023-01-27T12:56:16.923Z,4.80
2023-01-27T12:57:49.628Z,5.57
2023-01-27T12:59:26.051Z,4.32
2023-01-27T13:01:01.033Z,3.55
2023-01-27T13:02:36.083Z,4.18
2023-01-27T13:04:16.270Z,3.53
2023-01-27T13:05:53.539Z,4.15
2023-01-27T13:07:30.682Z,5.47
2023-01-27T13:09:04.376Z,3.38
2023-01-27T13:10:38.444Z,3.78
2023-01-27T13:12:17.639Z,4.30
2023-01-27T13:13:51.924Z,5.05
2023-01-27T13:15:28.374Z,4.35
2023-01-27T13:17:02.039Z,3.53
2023-01-27T13:18:38.296Z,4.25
2023-01-27T13:20:19.969Z,3.95
2023-01-27T13:21:54.997Z,6.00
2023-01-27T13:23:31.585Z,9.20
2023-01-27T13:25:05.280Z,4.68
2023-01-27T13:26:39.982Z,5.13
2023-01-27T13:28:18.237Z,4.28
2023-01-27T13:29:55.872Z,4.45
2023-01-27T13:31:43.003Z,4.50
2023-01-27T13:33:28.065Z,4.35
2023-01-27T13:35:06.431Z,7.13
2023-01-27T13:36:45.434Z,4.35
2023-01-27T13:38:23.737Z,4.80
2023-01-27T13:40:04.004Z,7.85
2023-01-27T13:41:43.627Z,9.38
2023-01-27T13:43:23.206Z,12.82
2023-01-27T13:45:00.937Z,13.32
2023-01-27T13:46:39.432Z,13.02
2023-01-27T13:48:21.754Z,15.45
2023-01-27T13:49:58.858Z,7.22
2023-01-27T13:51:34.050Z,9.00
2023-01-27T13:53:10.258Z,11.75
2023-01-27T13:54:43.182Z,8.82
2023-01-27T13:56:32.234Z,7.22
2023-01-27T13:58:12.280Z,4.88
2023-01-27T14:00:00.470Z,3.35
2023-01-27T14:01:44.449Z,8.60
2023-01-27T14:03:36.341Z,5.32
2023-01-27T14:05:26.297Z,11.35
2023-01-27T14:07:08.151Z,6.75
2023-01-27T14:08:51.063Z,12.30
2023-01-27T14:10:29.302Z,8.13
2023-01-27T14:12:12.830Z,9.18
2023-01-27T14:13:59.012Z,7.10
2023-01-27T14:15:38.831Z,9.30
2023-01-27T14:17:34.899Z,5.82
2023-01-27T14:19:21.563Z,5.25
2023-01-27T14:21:05.615Z,5.40
2023-01-27T14:22:48.321Z,6.47
2023-01-27T14:24:35.160Z,5.90
2023-01-27T14:26:18.851Z,5.32
2023-01-27T14:29:43.089Z,2.83
2023-01-27T14:31:20.469Z,2.10
2023-01-27T14:32:59.698Z,3.97
2023-01-27T14:34:43.804Z,7.22
2023-01-27T14:36:22.465Z,3.85
2023-01-27T14:38:08.062Z,3.95
2023-01-27T14:39:49.094Z,2.30
2023-01-27T14:41:29.672Z,3.80
2023-01-27T14:43:14.273Z,6.78
2023-01-27T14:45:02.999Z,3.83
2023-01-27T14:46:52.989Z,1.70
2023-01-27T14:48:41.639Z,2.80
2023-01-27T14:50:24.895Z,2.50
2023-01-27T14:52:04.645Z,2.38
2023-01-27T14:53:50.467Z,1.70
2023-01-27T14:55:35.844Z,1.75
2023-01-27T14:57:22.227Z,2.00
2023-01-27T14:59:01.082Z,1.98
2023-01-27T15:00:46.379Z,2.45
2023-01-27T15:02:37.658Z,2.10
2023-01-27T15:04:48.387Z,2.33
2023-01-27T15:06:26.357Z,2.25
2023-01-27T15:08:07.252Z,2.17
2023-01-27T15:09:59.064Z,2.08
2023-01-27T15:11:47.008Z,2.10
2023-01-27T15:13:34.825Z,2.30
2023-01-27T15:15:28.907Z,2.08
2023-01-27T15:17:18.643Z,1.92
2023-01-27T15:19:15.864Z,2.10
2023-01-27T15:21:03.676Z,1.88
2023-01-27T15:22:48.464Z,2.13
2023-01-27T15:24:57.062Z,3.35
2023-01-27T15:26:31.727Z,1.85
2023-01-27T15:28:05.948Z,1.88
2023-01-27T15:29:39.046Z,2.00
2023-01-27T15:31:26.536Z,2.90
2023-01-27T15:33:00.742Z,2.10
2023-01-27T15:34:33.495Z,2.67
2023-01-27T15:36:18.699Z,2.75
2023-01-27T15:37:58.589Z,3.65
2023-01-27T15:39:40.904Z,2.10
2023-01-27T15:41:16.405Z,1.77
2023-01-27T15:42:52.988Z,2.58
2023-01-27T15:44:31.107Z,1.60
2023-01-27T15:46:24.297Z,1.60
2023-01-27T15:48:03.452Z,1.70
2023-01-27T15:49:40.958Z,1.70
2023-01-27T15:51:18.216Z,1.52
2023-01-27T15:52:52.139Z,1.65
2023-01-27T15:54:28.110Z,1.95
2023-01-27T15:56:02.293Z,1.73
2023-01-27T15:57:36.628Z,1.70
2023-01-27T15:59:18.844Z,2.72
2023-01-27T16:00:53.192Z,2.17
2023-01-27T16:02:28.020Z,2.10
2023-01-27T16:04:08.782Z,4.72
2023-01-27T16:05:46.759Z,2.30
2023-01-27T16:07:29.298Z,3.08
2023-01-27T16:09:05.659Z,3.70
2023-01-27T16:10:39.888Z,4.15
2023-01-27T16:12:30.135Z,3.53
2023-01-27T16:14:37.679Z,3.90
2023-01-27T16:16:36.086Z,7.85
2023-01-27T16:18:26.551Z,3.38
2023-01-27T16:20:20.758Z,4.50
2023-01-27T16:21:57.843Z,3.53
2023-01-27T16:23:42.512Z,3.33
2023-01-27T16:25:25.857Z,3.30
2023-01-27T16:27:08.694Z,2.75
2023-01-27T16:28:45.253Z,2.53
2023-01-27T16:30:22.584Z,3.33
2023-01-27T16:32:00.455Z,3.45
2023-01-27T16:33:37.956Z,3.45
2023-01-27T16:35:20.254Z,6.32
2023-01-27T16:37:02.889Z,11.13
2023-01-27T16:38:39.022Z,9.15
2023-01-27T16:40:20.356Z,13.53
2023-01-27T16:41:56.455Z,4.88
2023-01-27T16:43:33.415Z,3.97
2023-01-27T16:45:19.112Z,3.03
2023-01-27T16:46:54.734Z,4.90
2023-01-27T16:48:33.298Z,3.25
2023-01-27T16:50:06.789Z,4.30
2023-01-27T16:51:41.031Z,4.20
2023-01-27T16:53:18.853Z,2.80
2023-01-27T16:54:55.029Z,6.25
2023-01-27T16:56:29.643Z,6.03
2023-01-27T16:58:03.578Z,8.57
2023-01-27T16:59:40.150Z,6.30
2023-01-27T17:01:22.121Z,3.83
2023-01-27T17:02:56.910Z,3.28
2023-01-27T17:04:31.715Z,4.90
2023-01-27T17:06:07.496Z,6.03
2023-01-27T17:07:41.618Z,7.32
2023-01-27T17:09:22.826Z,5.00
2023-01-27T17:10:57.646Z,5.70
2023-01-27T17:12:32.868Z,6.65
2023-01-27T17:14:28.662Z,7.35
2023-01-27T17:16:05.902Z,5.72
2023-01-27T17:17:40.433Z,6.68
2023-01-27T17:19:19.975Z,14.70
2023-01-27T17:20:53.400Z,13.55
2023-01-27T17:22:32.512Z,14.02
2023-01-27T17:24:14.304Z,12.43
2023-01-27T17:25:47.471Z,9.35
2023-01-27T17:27:26.863Z,8.43
2023-01-27T17:28:59.722Z,11.25
2023-01-27T17:30:39.184Z,9.77
2023-01-27T17:32:21.313Z,8.43
2023-01-27T17:34:01.532Z,8.13
2023-01-27T17:35:37.255Z,6.47
2023-01-27T17:37:16.259Z,6.13
2023-01-27T17:38:50.898Z,9.13
2023-01-27T17:40:24.931Z,5.60
2023-01-27T17:41:59.832Z,5.28
2023-01-27T17:43:35.245Z,6.05
2023-01-27T17:45:23.801Z,6.43
2023-01-27T17:46:56.546Z,6.10
2023-01-27T17:48:28.374Z,5.97
2023-01-27T17:50:01.080Z,5.82
2023-01-27T17:51:39.846Z,4.80
2023-01-27T17:53:13.972Z,4.53
2023-01-27T17:54:47.613Z,4.30
2023-01-27T17:56:24.658Z,4.80
2023-01-27T17:58:03.507Z,3.78
2023-01-27T17:59:39.614Z,4.75
2023-01-27T18:01:13.195Z,4.38
2023-01-27T18:02:52.411Z,4.55
2023-01-27T18:04:25.858Z,4.35
2023-01-27T18:05:58.616Z,4.40
2023-01-27T18:07:32.253Z,4.70
2023-01-27T18:09:17.596Z,4.20
2023-01-27T18:10:51.614Z,4.38
2023-01-27T18:12:33.710Z,4.00
2023-01-27T18:14:09.831Z,5.38
2023-01-27T18:15:48.638Z,4.40
2023-01-27T18:17:23.139Z,5.80
2023-01-27T18:19:07.391Z,5.72
2023-01-27T18:20:40.130Z,5.53
2023-01-27T18:22:14.863Z,5.45
2023-01-27T18:23:49.684Z,5.22
2023-01-27T18:25:22.585Z,4.75
2023-01-27T18:26:55.337Z,4.32
2023-01-27T18:28:30.586Z,5.40
2023-01-27T18:30:11.300Z,10.20
2023-01-27T18:31:48.588Z,23.67
2023-01-27T18:33:21.331Z,24.55
2023-01-27T18:34:55.975Z,27.83
2023-01-27T18:36:34.519Z,23.25
2023-01-27T18:38:22.172Z,19.13
2023-01-27T18:39:55.854Z,9.90
2023-01-27T18:41:32.480Z,9.05
2023-01-27T18:43:06.198Z,7.63
2023-01-27T18:44:40.207Z,8.30
2023-01-27T18:46:13.001Z,8.32
2023-01-27T18:47:46.406Z,7.22
2023-01-27T18:49:19.142Z,7.00
2023-01-27T18:50:51.832Z,7.57
2023-01-27T18:52:24.641Z,8.00
2023-01-27T18:53:57.333Z,8.02
2023-01-27T18:55:30.993Z,7.35
2023-01-27T18:57:03.690Z,7.75
2023-01-27T18:58:37.105Z,6.80
2023-01-27T19:00:12.922Z,7.18
2023-01-27T19:01:45.709Z,8.00
2023-01-27T19:03:22.555Z,8.90
2023-01-27T19:04:55.290Z,10.23
2023-01-27T19:06:28.339Z,12.45
2023-01-27T19:08:01.826Z,8.23
2023-01-27T19:09:34.535Z,7.50
2023-01-27T19:11:07.220Z,8.05
2023-01-27T19:12:40.183Z,8.75
2023-01-27T19:14:12.859Z,8.55
2023-01-27T19:15:50.999Z,7.38
2023-01-27T19:17:24.169Z,7.72
2023-01-27T19:18:56.899Z,7.68
2023-01-27T19:20:31.757Z,6.80
2023-01-27T19:22:04.465Z,7.55
2023-01-27T19:23:37.212Z,9.73
2023-01-27T19:25:10.398Z,9.57
2023-01-27T19:26:43.392Z,9.80
2023-01-27T19:28:21.649Z,9.70
2023-01-27T19:29:54.733Z,11.05
2023-01-27T19:31:28.804Z,11.07
2023-01-27T19:33:01.495Z,10.40
2023-01-27T19:34:34.281Z,7.28
2023-01-27T19:36:20.707Z,6.93
2023-01-27T19:37:56.389Z,8.73
2023-01-27T19:39:29.181Z,6.07
2023-01-27T19:41:01.948Z,4.50
2023-01-27T19:42:34.714Z,4.88
2023-01-27T19:44:07.850Z,4.88
2023-01-27T19:45:40.970Z,5.15
2023-01-27T19:47:15.085Z,4.78
2023-01-27T19:48:49.081Z,5.22
2023-01-27T19:50:24.722Z,5.90
2023-01-27T19:51:57.836Z,7.18
2023-01-27T19:53:30.511Z,5.20
2023-01-27T19:55:03.219Z,5.28
2023-01-27T19:56:36.059Z,5.38
2023-01-27T19:58:22.165Z,7.70
2023-01-27T19:59:54.901Z,7.15
2023-01-27T20:01:27.853Z,6.25
2023-01-27T20:03:02.344Z,4.95
2023-01-27T20:04:35.090Z,4.93
2023-01-27T20:06:15.164Z,4.43
2023-01-27T20:07:48.914Z,4.38
2023-01-27T20:09:21.611Z,4.03
2023-01-27T20:10:54.317Z,3.75
2023-01-27T20:12:27.050Z,3.88
2023-01-27T20:14:00.845Z,4.40
2023-01-27T20:15:37.044Z,3.90
2023-01-27T20:17:09.741Z,5.07
2023-01-27T20:18:43.763Z,4.18
2023-01-27T20:20:17.065Z,4.57
2023-01-27T20:21:50.101Z,4.50
2023-01-27T20:23:22.795Z,5.50
2023-01-27T20:24:55.495Z,4.50
2023-01-27T20:26:29.465Z,5.28
2023-01-27T20:28:02.374Z,4.93
2023-01-27T20:29:36.506Z,4.40
2023-01-27T20:31:11.855Z,5.28
2023-01-27T20:32:44.745Z,9.73
2023-01-27T20:34:18.906Z,7.10
2023-01-27T20:35:51.618Z,9.13
2023-01-27T20:37:24.314Z,21.02
2023-01-27T20:38:57.014Z,24.95
2023-01-27T20:40:30.135Z,12.63
2023-01-27T20:42:02.858Z,7.50
2023-01-27T20:43:36.031Z,4.50
2023-01-27T20:45:09.528Z,4.10
2023-01-27T20:46:42.272Z,3.95
2023-01-27T20:48:16.056Z,5.18
2023-01-27T20:49:50.101Z,4.10
2023-01-27T20:51:22.961Z,3.85
2023-01-27T20:52:55.649Z,3.92
2023-01-27T20:54:28.335Z,3.95
2023-01-27T20:56:01.568Z,3.95
2023-01-27T20:57:35.151Z,3.90
2023-01-27T20:59:08.067Z,3.53
2023-01-27T21:00:40.818Z,4.07
2023-01-27T21:02:13.919Z,4.68
2023-01-27T21:03:47.304Z,5.00